Time;durP1;ratioP1;P1;durP2;ratioP2;P2;SDS_P1;SDS_P2;PMS_P1;PMS_P2;Temp;Humidity;BMP_temperature;BMP_pressure;BME280_temperature;BME280_humidity;BME280_pressure;Samples;Min_cycle;Max_cycle;Signal;HPM_P1;HPM_P2
2022/03/30 00:02:14;;;;;;;11.83;6.93;;;;;;;;;;4988346;28;20027;-51
2022/03/30 00:04:40;;;;;;;13.93;9.00;;;;;;;;;;4986344;28;20364;-52
2022/03/30 00:07:05;;;;;;;16.88;13.40;;;;;;;;;;4986164;28;20157;-52
2022/03/30 00:09:32;;;;;;;13.70;7.70;;;;;;;;;;5006008;28;20386;-53
2022/03/30 00:11:57;;;;;;;15.95;13.13;;;;;;;;;;5005886;28;20105;-53
2022/03/30 00:14:23;;;;;;;12.85;7.47;;;;;;;;;;5005204;28;20529;-53
2022/03/30 00:16:48;;;;;;;14.07;8.68;;;;;;;;;;5005737;28;20060;-53
2022/03/30 00:19:13;;;;;;;15.20;9.27;;;;;;;;;;5005943;28;20034;-52
2022/03/30 00:21:38;;;;;;;11.90;7.43;;;;;;;;;;5018582;28;20104;-53
2022/03/30 00:24:04;;;;;;;14.27;8.67;;;;;;;;;;5013822;28;20040;-53
2022/03/30 00:26:29;;;;;;;17.50;10.30;;;;;;;;;;5012355;28;20407;-53
2022/03/30 00:28:54;;;;;;;14.90;9.90;;;;;;;;;;5011889;28;20320;-52
2022/03/30 00:31:20;;;;;;;17.37;13.70;;;;;;;;;;5010472;28;20265;-53
2022/03/30 00:33:46;;;;;;;12.80;8.07;;;;;;;;;;5007687;28;20834;-51
2022/03/30 00:36:11;;;;;;;12.73;7.60;;;;;;;;;;5006915;28;20340;-52
2022/03/30 00:38:37;;;;;;;13.38;8.10;;;;;;;;;;5006967;28;20013;-52
2022/03/30 00:41:02;;;;;;;12.87;7.50;;;;;;;;;;4998465;28;20033;-51
2022/03/30 00:43:27;;;;;;;14.57;7.53;;;;;;;;;;4995725;28;20277;-52
2022/03/30 00:45:52;;;;;;;15.38;8.48;;;;;;;;;;5003690;28;20780;-52
2022/03/30 00:48:18;;;;;;;13.60;7.90;;;;;;;;;;5003658;28;20540;-52
2022/03/30 00:50:43;;;;;;;15.65;10.40;;;;;;;;;;5003763;28;20798;-51
2022/03/30 00:53:08;;;;;;;14.53;9.23;;;;;;;;;;5003505;28;20041;-52
2022/03/30 00:55:34;;;;;;;18.53;10.50;;;;;;;;;;5003645;28;20275;-52
2022/03/30 00:57:59;;;;;;;15.00;9.18;;;;;;;;;;5002930;28;20279;-51
2022/03/30 01:00:25;;;;;;;14.27;7.95;;;;;;;;;;5005695;28;20803;-51
2022/03/30 01:02:50;;;;;;;15.77;9.27;;;;;;;;;;5016753;28;20571;-51
2022/03/30 01:05:16;;;;;;;17.88;10.00;;;;;;;;;;5003163;28;20030;-52
2022/03/30 01:07:41;;;;;;;15.60;8.70;;;;;;;;;;5003331;28;20100;-52
2022/03/30 01:10:07;;;;;;;15.68;9.23;;;;;;;;;;5003003;28;20125;-52
2022/03/30 01:12:34;;;;;;;15.65;9.10;;;;;;;;;;5003716;28;20025;-52
2022/03/30 01:14:59;;;;;;;16.10;8.32;;;;;;;;;;5003985;28;20036;-53
2022/03/30 01:17:25;;;;;;;13.70;8.05;;;;;;;;;;5003678;28;20417;-51
2022/03/30 01:19:50;;;;;;;13.73;8.07;;;;;;;;;;4986676;28;20026;-52
2022/03/30 01:22:15;;;;;;;14.25;8.15;;;;;;;;;;5003466;28;20416;-52
2022/03/30 01:24:41;;;;;;;13.30;7.93;;;;;;;;;;5003930;28;20128;-51
2022/03/30 01:27:06;;;;;;;14.80;8.93;;;;;;;;;;5003877;28;20265;-52
2022/03/30 01:32:25;;;;;;;16.38;9.10;;;;;;;;;;5003429;28;20339;-52
2022/03/30 01:34:50;;;;;;;14.80;8.27;;;;;;;;;;5003842;28;20240;-51
2022/03/30 01:37:15;;;;;;;15.13;8.60;;;;;;;;;;5003643;28;20018;-52
2022/03/30 01:39:41;;;;;;;16.73;9.05;;;;;;;;;;5003998;28;20724;-52
2022/03/30 01:42:06;;;;;;;15.13;8.80;;;;;;;;;;5019703;28;20029;-51
2022/03/30 01:44:32;;;;;;;15.35;9.57;;;;;;;;;;5003530;28;20100;-52
2022/03/30 01:46:57;;;;;;;15.57;8.80;;;;;;;;;;4984377;28;20050;-51
2022/03/30 01:49:22;;;;;;;15.73;9.30;;;;;;;;;;5003286;28;20512;-52
2022/03/30 01:51:49;;;;;;;16.43;9.17;;;;;;;;;;5003519;28;20649;-51
2022/03/30 01:54:16;;;;;;;15.95;8.95;;;;;;;;;;5003219;28;20304;-51
2022/03/30 01:56:41;;;;;;;18.08;10.13;;;;;;;;;;5003617;28;20033;-51
2022/03/30 01:59:06;;;;;;;16.10;9.68;;;;;;;;;;5003454;28;20021;-52
2022/03/30 02:01:32;;;;;;;15.85;8.90;;;;;;;;;;5014648;28;20401;-52
2022/03/30 02:03:57;;;;;;;14.45;8.30;;;;;;;;;;5007946;28;20028;-52
2022/03/30 02:06:24;;;;;;;18.97;10.00;;;;;;;;;;5002942;28;20029;-52
2022/03/30 02:08:49;;;;;;;18.45;11.35;;;;;;;;;;5002978;28;20300;-51
2022/03/30 02:11:15;;;;;;;15.98;10.00;;;;;;;;;;5003106;28;20084;-51
2022/03/30 02:13:40;;;;;;;15.98;10.52;;;;;;;;;;4985096;28;20050;-50
2022/03/30 02:16:05;;;;;;;14.73;8.13;;;;;;;;;;5003199;28;20114;-51
2022/03/30 02:18:30;;;;;;;16.98;11.65;;;;;;;;;;5002739;28;20049;-51
2022/03/30 02:20:56;;;;;;;17.33;9.67;;;;;;;;;;4996310;28;20026;-51
2022/03/30 02:23:21;;;;;;;15.82;8.98;;;;;;;;;;4993315;28;20280;-51
2022/03/30 02:25:46;;;;;;;14.13;8.33;;;;;;;;;;5002952;28;20017;-51
2022/03/30 02:28:11;;;;;;;14.70;8.65;;;;;;;;;;5002722;28;20273;-50
2022/03/30 02:30:37;;;;;;;15.57;8.20;;;;;;;;;;5003106;28;20018;-52
2022/03/30 02:33:02;;;;;;;17.45;9.32;;;;;;;;;;5002914;28;20292;-52
2022/03/30 02:35:28;;;;;;;17.05;9.70;;;;;;;;;;5002742;28;20026;-52
2022/03/30 02:37:55;;;;;;;14.82;8.77;;;;;;;;;;5002521;28;20026;-52
2022/03/30 02:40:21;;;;;;;16.40;10.57;;;;;;;;;;5004323;28;20112;-52
2022/03/30 02:42:46;;;;;;;16.30;9.57;;;;;;;;;;5017361;28;20133;-51
2022/03/30 02:45:11;;;;;;;14.98;9.55;;;;;;;;;;5002736;28;20030;-50
2022/03/30 02:50:20;;;;;;;14.77;8.50;;;;;;;;;;5002485;28;20867;-52
2022/03/30 02:52:46;;;;;;;14.00;8.33;;;;;;;;;;5002408;28;20124;-52
2022/03/30 02:55:11;;;;;;;14.70;8.73;;;;;;;;;;5002720;28;20068;-52
2022/03/30 02:57:36;;;;;;;14.63;8.50;;;;;;;;;;5002183;28;20284;-53
2022/03/30 03:00:04;;;;;;;15.38;9.43;;;;;;;;;;5002165;28;20708;-52
2022/03/30 03:02:29;;;;;;;17.10;10.90;;;;;;;;;;4985713;28;20028;-53
2022/03/30 03:04:55;;;;;;;15.87;10.30;;;;;;;;;;5002349;28;20022;-50
2022/03/30 03:07:20;;;;;;;16.60;9.43;;;;;;;;;;5002234;28;20276;-50
2022/03/30 03:09:45;;;;;;;14.98;8.73;;;;;;;;;;4981841;28;20278;-51
2022/03/30 03:12:10;;;;;;;16.07;9.03;;;;;;;;;;4998752;28;20473;-51
2022/03/30 03:14:36;;;;;;;16.27;9.63;;;;;;;;;;5002197;28;20444;-52
2022/03/30 03:17:01;;;;;;;16.92;9.20;;;;;;;;;;5002485;28;20284;-52
2022/03/30 03:19:28;;;;;;;16.97;9.63;;;;;;;;;;5001991;28;20030;-52
2022/03/30 03:21:53;;;;;;;17.33;9.23;;;;;;;;;;5016522;28;20080;-51
2022/03/30 03:24:19;;;;;;;16.90;9.37;;;;;;;;;;5003825;28;20161;-53
2022/03/30 03:26:44;;;;;;;16.63;9.43;;;;;;;;;;4984449;28;20036;-51
2022/03/30 03:29:09;;;;;;;15.23;8.47;;;;;;;;;;5002363;28;20261;-51
2022/03/30 03:31:34;;;;;;;16.50;8.97;;;;;;;;;;5002440;28;20970;-52
2022/03/30 03:33:59;;;;;;;16.80;9.47;;;;;;;;;;5001757;28;20367;-52
2022/03/30 03:36:25;;;;;;;14.47;9.80;;;;;;;;;;5001842;28;20356;-51
2022/03/30 03:38:50;;;;;;;15.38;8.93;;;;;;;;;;5001256;28;20053;-50
2022/03/30 03:41:16;;;;;;;14.93;9.15;;;;;;;;;;5005400;28;20022;-52
2022/03/30 03:43:41;;;;;;;15.63;10.30;;;;;;;;;;4991501;28;20033;-49
2022/03/30 03:46:06;;;;;;;13.95;8.43;;;;;;;;;;5000093;28;20018;-51
2022/03/30 03:48:31;;;;;;;14.48;9.13;;;;;;;;;;4994691;28;20583;-50
2022/03/30 03:50:57;;;;;;;14.68;8.93;;;;;;;;;;5000647;28;20024;-51
2022/03/30 03:53:22;;;;;;;15.33;10.33;;;;;;;;;;4999965;28;20030;-52
2022/03/30 03:55:47;;;;;;;13.83;7.97;;;;;;;;;;4997097;28;20372;-53
2022/03/30 03:58:13;;;;;;;16.87;9.20;;;;;;;;;;5000235;28;20288;-53
2022/03/30 04:00:38;;;;;;;15.77;10.13;;;;;;;;;;5001587;28;20284;-52
2022/03/30 04:03:03;;;;;;;13.43;8.15;;;;;;;;;;5000144;28;20771;-52
2022/03/30 04:05:29;;;;;;;16.60;12.35;;;;;;;;;;4982158;28;20025;-51
2022/03/30 04:07:54;;;;;;;14.93;9.33;;;;;;;;;;5000617;28;20100;-53
2022/03/30 04:10:19;;;;;;;17.00;9.85;;;;;;;;;;4983038;28;20269;-53
2022/03/30 04:12:45;;;;;;;15.23;7.80;;;;;;;;;;4989795;28;20025;-54
2022/03/30 04:15:10;;;;;;;13.07;7.45;;;;;;;;;;5005119;28;20108;-52
2022/03/30 04:17:41;;;;;;;16.90;10.18;;;;;;;;;;5004325;28;20053;-53
2022/03/30 04:20:06;;;;;;;13.27;7.55;;;;;;;;;;5004603;28;20037;-52
2022/03/30 04:22:31;;;;;;;13.38;7.88;;;;;;;;;;4986285;28;20557;-53
2022/03/30 04:24:57;;;;;;;14.77;9.40;;;;;;;;;;4989840;28;20026;-52
2022/03/30 04:27:22;;;;;;;15.80;10.27;;;;;;;;;;5004296;28;20269;-53
2022/03/30 04:29:47;;;;;;;15.37;10.13;;;;;;;;;;4986111;28;20053;-52
2022/03/30 04:32:12;;;;;;;16.40;11.47;;;;;;;;;;5004139;28;20265;-52
2022/03/30 04:34:38;;;;;;;18.50;10.73;;;;;;;;;;5002325;28;20300;-53
2022/03/30 04:37:03;;;;;;;12.73;7.57;;;;;;;;;;5004094;28;20785;-52
2022/03/30 04:39:28;;;;;;;14.27;7.93;;;;;;;;;;5003794;28;20418;-52
2022/03/30 04:41:53;;;;;;;18.40;8.23;;;;;;;;;;5005193;28;20272;-51
2022/03/30 04:44:20;;;;;;;14.43;9.33;;;;;;;;;;5003465;28;20284;-53
2022/03/30 04:46:45;;;;;;;13.85;8.77;;;;;;;;;;4999372;28;20297;-53
2022/03/30 04:49:11;;;;;;;12.57;8.70;;;;;;;;;;4993021;28;20029;-51
2022/03/30 04:51:36;;;;;;;14.17;8.63;;;;;;;;;;4994818;28;20031;-51
2022/03/30 04:54:02;;;;;;;12.97;7.43;;;;;;;;;;4997467;28;20161;-50
2022/03/30 04:56:27;;;;;;;13.48;7.90;;;;;;;;;;5003394;28;20033;-51
2022/03/30 04:58:52;;;;;;;12.83;7.20;;;;;;;;;;5004083;28;20076;-51
2022/03/30 05:01:17;;;;;;;11.13;7.20;;;;;;;;;;5011580;28;20357;-52
2022/03/30 05:03:43;;;;;;;13.97;8.07;;;;;;;;;;5003585;28;20279;-52
2022/03/30 05:06:08;;;;;;;14.60;8.07;;;;;;;;;;5003154;28;20771;-52
2022/03/30 05:08:33;;;;;;;13.77;8.07;;;;;;;;;;5004035;28;20607;-52
2022/03/30 05:10:58;;;;;;;14.60;8.80;;;;;;;;;;5003883;28;20791;-52
2022/03/30 05:13:24;;;;;;;13.77;9.13;;;;;;;;;;5004056;28;20048;-51
2022/03/30 05:15:49;;;;;;;15.10;8.77;;;;;;;;;;4999690;28;20788;-51
2022/03/30 05:18:14;;;;;;;16.67;8.07;;;;;;;;;;5000356;28;20808;-52
2022/03/30 05:20:46;;;;;;;10.45;6.88;;;;;;;;;;5000983;28;20025;-52
2022/03/30 05:23:11;;;;;;;12.88;7.63;;;;;;;;;;5002071;28;20161;-53
2022/03/30 05:25:37;;;;;;;13.15;8.30;;;;;;;;;;5002931;28;20120;-53
2022/03/30 05:28:02;;;;;;;14.40;7.43;;;;;;;;;;5002611;28;20111;-53
2022/03/30 05:30:28;;;;;;;13.85;8.65;;;;;;;;;;5000801;28;20093;-53
2022/03/30 05:32:53;;;;;;;14.77;7.47;;;;;;;;;;4984949;28;20029;-52
2022/03/30 05:35:18;;;;;;;12.27;7.43;;;;;;;;;;4992757;28;20065;-53
2022/03/30 05:37:46;;;;;;;11.68;6.85;;;;;;;;;;4990652;28;20474;-52
2022/03/30 05:40:12;;;;;;;12.98;7.55;;;;;;;;;;5000045;28;20505;-52
2022/03/30 05:42:37;;;;;;;12.00;6.95;;;;;;;;;;5009240;28;20517;-54
2022/03/30 05:45:04;;;;;;;14.30;9.18;;;;;;;;;;4984871;28;20026;-53
2022/03/30 05:47:30;;;;;;;12.25;6.68;;;;;;;;;;4995432;28;20057;-52
2022/03/30 05:49:55;;;;;;;12.68;8.75;;;;;;;;;;5003622;28;20104;-52
2022/03/30 05:52:20;;;;;;;13.13;9.43;;;;;;;;;;5003015;28;20375;-52
2022/03/30 05:54:45;;;;;;;12.97;9.30;;;;;;;;;;5003345;28;20359;-52
2022/03/30 05:57:11;;;;;;;12.80;7.03;;;;;;;;;;4982912;28;20042;-51
2022/03/30 05:59:37;;;;;;;10.83;7.13;;;;;;;;;;4986684;28;20280;-52
2022/03/30 06:02:02;;;;;;;12.13;7.05;;;;;;;;;;4994390;28;20260;-51
2022/03/30 06:04:28;;;;;;;14.32;8.52;;;;;;;;;;5001389;28;20033;-52
2022/03/30 06:06:53;;;;;;;11.10;7.47;;;;;;;;;;4997461;28;20034;-52
2022/03/30 06:09:18;;;;;;;11.17;6.97;;;;;;;;;;4998633;28;20064;-53
2022/03/30 06:11:44;;;;;;;12.80;10.20;;;;;;;;;;4997852;28;20069;-53
2022/03/30 06:14:09;;;;;;;24.23;21.73;;;;;;;;;;4994128;28;20292;-54
2022/03/30 06:16:34;;;;;;;25.10;22.30;;;;;;;;;;5002193;28;20751;-53
2022/03/30 06:18:59;;;;;;;20.02;17.95;;;;;;;;;;5002154;28;20331;-54
2022/03/30 06:21:25;;;;;;;12.57;6.73;;;;;;;;;;4999648;28;20018;-54
2022/03/30 06:23:50;;;;;;;12.70;6.93;;;;;;;;;;5000059;28;20269;-54
2022/03/30 06:26:15;;;;;;;12.70;8.10;;;;;;;;;;5002460;28;20045;-53
2022/03/30 06:28:41;;;;;;;12.75;6.85;;;;;;;;;;5002628;28;20272;-53
2022/03/30 06:31:06;;;;;;;14.77;8.70;;;;;;;;;;5002932;28;20099;-54
2022/03/30 06:33:31;;;;;;;20.77;18.70;;;;;;;;;;4987041;28;20320;-52
2022/03/30 06:35:57;;;;;;;12.50;8.50;;;;;;;;;;4991743;28;20029;-54
2022/03/30 06:38:22;;;;;;;9.63;6.80;;;;;;;;;;5008627;28;20422;-54
2022/03/30 06:40:47;;;;;;;9.93;6.03;;;;;;;;;;5012596;28;20311;-52
2022/03/30 06:43:13;;;;;;;10.30;6.60;;;;;;;;;;5005101;28;20026;-53
2022/03/30 06:45:38;;;;;;;12.98;7.80;;;;;;;;;;5000467;28;20019;-53
2022/03/30 06:48:05;;;;;;;13.27;9.77;;;;;;;;;;4986686;28;20030;-54
2022/03/30 06:50:32;;;;;;;12.65;6.68;;;;;;;;;;4987475;28;20022;-53
2022/03/30 06:52:57;;;;;;;10.02;6.43;;;;;;;;;;4998059;28;20229;-51
2022/03/30 06:55:22;;;;;;;10.47;6.60;;;;;;;;;;5000314;28;20508;-53
2022/03/30 06:57:48;;;;;;;10.02;6.13;;;;;;;;;;5000484;28;20348;-54
2022/03/30 07:00:13;;;;;;;11.77;8.27;;;;;;;;;;5000454;28;20474;-51
2022/03/30 07:02:39;;;;;;;13.38;11.05;;;;;;;;;;4985941;28;20413;-53
2022/03/30 07:05:04;;;;;;;17.48;14.20;;;;;;;;;;4966265;28;20500;-52
2022/03/30 07:10:16;;;;;;;13.75;7.40;;;;;;;;;;5000666;28;20041;-50
2022/03/30 07:12:48;;;;;;;11.43;6.45;;;;;;;;;;5000764;28;20042;-51
2022/03/30 07:15:13;;;;;;;12.50;7.70;;;;;;;;;;5000764;28;20080;-52
2022/03/30 07:17:45;;;;;;;14.20;10.43;;;;;;;;;;4983208;28;20018;-53
2022/03/30 07:20:11;;;;;;;12.23;8.50;;;;;;;;;;5001979;28;20026;-54
2022/03/30 07:22:36;;;;;;;17.05;15.23;;;;;;;;;;5008814;28;20046;-54
2022/03/30 07:25:01;;;;;;;27.37;24.70;;;;;;;;;;5000861;28;20029;-52
2022/03/30 07:27:27;;;;;;;10.30;6.20;;;;;;;;;;5001848;28;20029;-50
2022/03/30 07:29:52;;;;;;;10.17;5.90;;;;;;;;;;5001785;28;21001;-52
2022/03/30 07:32:19;;;;;;;10.93;6.32;;;;;;;;;;5000221;28;20429;-53
2022/03/30 07:34:44;;;;;;;10.30;6.13;;;;;;;;;;5001566;28;20045;-52
2022/03/30 07:37:10;;;;;;;12.23;6.32;;;;;;;;;;5001854;28;20049;-53
2022/03/30 07:39:35;;;;;;;8.87;6.03;;;;;;;;;;5001778;28;20576;-52
2022/03/30 07:42:00;;;;;;;10.10;6.10;;;;;;;;;;5015717;28;20528;-53
2022/03/30 07:44:26;;;;;;;11.57;6.53;;;;;;;;;;5003709;28;20442;-52
2022/03/30 07:46:51;;;;;;;11.05;6.38;;;;;;;;;;5003649;28;20450;-54
2022/03/30 07:49:17;;;;;;;10.57;6.03;;;;;;;;;;4997994;28;20107;-52
2022/03/30 07:51:42;;;;;;;10.35;5.68;;;;;;;;;;4987930;28;20041;-52
2022/03/30 07:54:08;;;;;;;10.98;6.32;;;;;;;;;;5005376;28;20694;-54
2022/03/30 07:56:34;;;;;;;11.83;5.93;;;;;;;;;;5004863;28;20338;-54
2022/03/30 07:59:00;;;;;;;13.13;7.50;;;;;;;;;;5004110;28;20272;-54
2022/03/30 08:01:25;;;;;;;11.38;7.53;;;;;;;;;;5005006;28;20034;-52
2022/03/30 08:03:51;;;;;;;13.25;7.38;;;;;;;;;;5004181;28;20552;-51
2022/03/30 08:06:16;;;;;;;13.45;9.95;;;;;;;;;;5003941;28;20117;-51
2022/03/30 08:08:42;;;;;;;14.67;8.63;;;;;;;;;;5004605;28;20088;-51
2022/03/30 08:11:07;;;;;;;10.73;7.93;;;;;;;;;;5005219;28;20268;-54
2022/03/30 08:13:32;;;;;;;15.18;10.85;;;;;;;;;;5005225;28;20610;-53
2022/03/30 08:15:57;;;;;;;10.00;5.93;;;;;;;;;;5005084;28;20489;-53
2022/03/30 08:18:23;;;;;;;11.57;7.13;;;;;;;;;;5005069;28;20370;-54
2022/03/30 08:23:35;;;;;;;12.27;7.50;;;;;;;;;;5004039;28;20849;-53
2022/03/30 08:26:00;;;;;;;13.68;8.52;;;;;;;;;;5003915;28;20033;-53
2022/03/30 08:28:27;;;;;;;15.02;12.45;;;;;;;;;;5005038;28;20026;-53
2022/03/30 08:30:52;;;;;;;15.13;12.45;;;;;;;;;;5004602;28;20045;-52
2022/03/30 08:33:23;;;;;;;15.55;11.25;;;;;;;;;;5004772;28;20076;-51
2022/03/30 08:35:48;;;;;;;15.73;11.68;;;;;;;;;;5005068;28;20490;-52
2022/03/30 08:38:13;;;;;;;11.02;6.20;;;;;;;;;;5004727;28;20030;-52
2022/03/30 08:40:39;;;;;;;15.07;12.97;;;;;;;;;;4974040;28;20024;-51
2022/03/30 08:43:04;;;;;;;14.65;13.13;;;;;;;;;;5018064;28;20811;-53
2022/03/30 08:45:29;;;;;;;10.50;5.93;;;;;;;;;;5004361;28;20025;-54
2022/03/30 08:47:55;;;;;;;12.25;6.22;;;;;;;;;;5004583;28;20028;-54
2022/03/30 08:50:20;;;;;;;11.45;6.22;;;;;;;;;;5004464;28;20022;-52
2022/03/30 08:52:47;;;;;;;11.32;6.32;;;;;;;;;;5003562;28;20043;-53
2022/03/30 08:55:13;;;;;;;10.02;5.90;;;;;;;;;;5003559;28;20041;-54
2022/03/30 08:57:38;;;;;;;12.25;6.68;;;;;;;;;;5002907;28;20028;-53
2022/03/30 09:00:07;;;;;;;12.50;7.43;;;;;;;;;;5003158;28;20057;-54
2022/03/30 09:02:33;;;;;;;12.60;9.40;;;;;;;;;;5005361;28;20030;-54
2022/03/30 09:05:11;;;;;;;16.25;14.52;;;;;;;;;;4990169;28;20423;-54
2022/03/30 09:07:36;;;;;;;16.67;14.95;;;;;;;;;;5002614;28;20101;-53
2022/03/30 09:10:02;;;;;;;25.63;20.80;;;;;;;;;;5004421;28;20061;-53
2022/03/30 09:12:27;;;;;;;18.98;17.08;;;;;;;;;;5002190;28;20787;-52
2022/03/30 09:14:59;;;;;;;35.77;32.23;;;;;;;;;;4985438;28;20044;-53
2022/03/30 09:17:24;;;;;;;14.02;6.85;;;;;;;;;;5004250;28;20356;-51
2022/03/30 09:19:51;;;;;;;10.13;6.37;;;;;;;;;;5004433;28;20759;-51
2022/03/30 09:22:16;;;;;;;14.40;8.70;;;;;;;;;;5019902;28;20033;-53
2022/03/30 09:24:41;;;;;;;12.70;9.63;;;;;;;;;;5003926;28;20501;-52
2022/03/30 09:27:07;;;;;;;35.88;32.72;;;;;;;;;;5004004;28;20451;-51
2022/03/30 09:29:33;;;;;;;31.10;28.38;;;;;;;;;;5003993;28;20018;-51
2022/03/30 09:32:02;;;;;;;30.20;27.25;;;;;;;;;;5003715;28;20038;-51
2022/03/30 09:34:27;;;;;;;25.40;22.93;;;;;;;;;;5002050;28;20116;-52
2022/03/30 09:36:52;;;;;;;23.05;20.67;;;;;;;;;;4981483;28;20203;-51
2022/03/30 09:39:28;;;;;;;27.43;24.97;;;;;;;;;;4986777;28;20021;-51
2022/03/30 09:41:54;;;;;;;33.58;30.30;;;;;;;;;;5016106;28;20436;-53
2022/03/30 09:44:19;;;;;;;35.55;32.25;;;;;;;;;;5007042;28;20018;-55
2022/03/30 09:46:52;;;;;;;28.55;25.75;;;;;;;;;;5002737;28;20521;-57
2022/03/30 09:49:36;;;;;;;37.53;34.05;;;;;;;;;;4985973;28;20101;-52
2022/03/30 09:52:01;;;;;;;65.88;58.65;;;;;;;;;;5003892;28;20025;-53
2022/03/30 09:54:39;;;;;;;71.55;60.08;;;;;;;;;;5002849;28;20400;-52
2022/03/30 09:57:10;;;;;;;26.08;23.63;;;;;;;;;;5002989;28;20033;-51
2022/03/30 09:59:58;;;;;;;49.25;44.10;;;;;;;;;;4995666;28;20022;-52
2022/03/30 10:02:23;;;;;;;55.83;49.95;;;;;;;;;;5002099;28;20022;-53
2022/03/30 10:04:49;;;;;;;40.28;36.42;;;;;;;;;;5002110;28;20524;-52
2022/03/30 10:07:15;;;;;;;57.92;51.70;;;;;;;;;;4985489;28;20041;-49
2022/03/30 10:09:42;;;;;;;40.27;36.40;;;;;;;;;;4984888;28;20034;-52
2022/03/30 10:12:07;;;;;;;50.75;45.60;;;;;;;;;;5003738;28;20538;-51
2022/03/30 10:14:33;;;;;;;57.88;51.72;;;;;;;;;;4969268;28;20070;-51
2022/03/30 10:16:58;;;;;;;18.83;16.88;;;;;;;;;;5003164;28;20029;-52
2022/03/30 10:19:24;;;;;;;47.07;42.27;;;;;;;;;;5003038;28;20097;-54
2022/03/30 10:21:55;;;;;;;46.23;41.77;;;;;;;;;;5006938;28;20272;-52
2022/03/30 10:24:39;;;;;;;11.65;5.93;;;;;;;;;;5002518;28;20331;-50
2022/03/30 10:27:06;;;;;;;11.60;6.18;;;;;;;;;;5002757;28;20030;-52
2022/03/30 10:29:31;;;;;;;12.23;7.22;;;;;;;;;;4993762;28;20105;-51
2022/03/30 10:32:14;;;;;;;14.18;10.38;;;;;;;;;;4996344;28;20557;-50
2022/03/30 10:34:50;;;;;;;23.00;20.58;;;;;;;;;;4969289;28;20046;-51
2022/03/30 10:37:22;;;;;;;22.35;20.17;;;;;;;;;;5002398;28;20116;-52
2022/03/30 10:39:53;;;;;;;14.68;11.80;;;;;;;;;;5002880;28;20117;-51
2022/03/30 10:42:19;;;;;;;34.85;31.63;;;;;;;;;;5019113;28;20029;-51
2022/03/30 10:44:46;;;;;;;21.40;19.43;;;;;;;;;;4984914;28;20013;-51
2022/03/30 10:47:21;;;;;;;14.27;12.10;;;;;;;;;;4985069;28;20276;-51
2022/03/30 10:49:56;;;;;;;37.75;34.17;;;;;;;;;;5002599;28;20481;-52
2022/03/30 10:52:29;;;;;;;34.90;31.58;;;;;;;;;;5002803;28;20085;-50
2022/03/30 10:55:24;;;;;;;10.88;6.00;;;;;;;;;;5002612;28;20713;-50
2022/03/30 10:57:51;;;;;;;13.75;7.38;;;;;;;;;;4976165;28;20033;-51
2022/03/30 11:00:23;;;;;;;10.90;6.13;;;;;;;;;;5002734;28;20022;-50
2022/03/30 11:02:49;;;;;;;12.52;6.80;;;;;;;;;;4987176;28;20100;-52
2022/03/30 11:05:15;;;;;;;17.88;16.02;;;;;;;;;;5002002;28;20096;-51
2022/03/30 11:07:41;;;;;;;19.23;17.42;;;;;;;;;;5002116;28;20515;-53
2022/03/30 11:10:33;;;;;;;54.45;48.75;;;;;;;;;;5002787;28;20109;-51
2022/03/30 11:12:59;;;;;;;54.25;48.60;;;;;;;;;;4979092;28;20054;-52
2022/03/30 11:15:24;;;;;;;66.28;58.90;;;;;;;;;;5002205;28;20060;-53
2022/03/30 11:17:49;;;;;;;41.75;37.70;;;;;;;;;;4972984;28;20412;-51
2022/03/30 11:20:16;;;;;;;85.20;69.07;;;;;;;;;;4977839;28;20034;-50
2022/03/30 11:22:44;;;;;;;108.40;80.65;;;;;;;;;;5004434;28;20368;-51
2022/03/30 11:25:09;;;;;;;111.07;77.97;;;;;;;;;;5006147;28;20033;-52
2022/03/30 11:27:34;;;;;;;130.17;91.87;;;;;;;;;;5006218;28;20026;-51
2022/03/30 11:30:01;;;;;;;27.95;24.77;;;;;;;;;;5005843;28;20260;-52
2022/03/30 11:32:28;;;;;;;34.88;31.67;;;;;;;;;;4963122;28;20041;-50
2022/03/30 11:35:00;;;;;;;30.70;24.35;;;;;;;;;;5006299;28;20469;-51
2022/03/30 11:37:30;;;;;;;156.52;101.28;;;;;;;;;;4987115;28;20021;-53
2022/03/30 11:40:05;;;;;;;30.15;27.15;;;;;;;;;;5005861;28;20785;-50
2022/03/30 11:42:30;;;;;;;80.80;65.65;;;;;;;;;;4998588;28;20022;-52
2022/03/30 11:45:13;;;;;;;65.97;53.47;;;;;;;;;;5005103;28;20032;-53
2022/03/30 11:47:44;;;;;;;9.80;5.07;;;;;;;;;;5003323;28;20278;-53
2022/03/30 11:50:09;;;;;;;10.80;5.75;;;;;;;;;;5003192;28;20025;-51
2022/03/30 11:52:35;;;;;;;30.95;28.05;;;;;;;;;;5004791;28;20433;-51
2022/03/30 11:55:00;;;;;;;28.13;25.35;;;;;;;;;;5001306;28;20034;-53
2022/03/30 11:57:25;;;;;;;78.23;65.77;;;;;;;;;;5004821;28;20127;-51
2022/03/30 11:59:57;;;;;;;116.20;84.95;;;;;;;;;;5003083;28;20320;-52
2022/03/30 12:02:24;;;;;;;96.10;75.63;;;;;;;;;;5007128;28;20034;-51
2022/03/30 12:04:49;;;;;;;104.38;77.82;;;;;;;;;;5005498;28;20077;-52
2022/03/30 12:07:15;;;;;;;26.02;23.60;;;;;;;;;;5004868;28;20045;-50
2022/03/30 12:09:44;;;;;;;47.92;43.03;;;;;;;;;;5004489;28;20026;-52
2022/03/30 12:12:11;;;;;;;74.28;62.78;;;;;;;;;;4987669;28;20028;-49
2022/03/30 12:14:36;;;;;;;106.28;79.28;;;;;;;;;;5004433;28;20044;-54
2022/03/30 12:17:04;;;;;;;91.03;71.83;;;;;;;;;;5004757;28;20120;-52
2022/03/30 12:19:29;;;;;;;78.35;64.28;;;;;;;;;;4987959;28;20118;-52
2022/03/30 12:21:54;;;;;;;70.40;61.13;;;;;;;;;;4990616;28;20148;-52
2022/03/30 12:24:22;;;;;;;47.28;42.40;;;;;;;;;;5005016;28;21107;-52
2022/03/30 12:26:51;;;;;;;131.02;91.50;;;;;;;;;;5004363;28;20026;-51
2022/03/30 12:29:16;;;;;;;28.67;25.58;;;;;;;;;;5005848;28;20026;-53
2022/03/30 12:31:52;;;;;;;57.75;51.35;;;;;;;;;;5005331;28;20014;-51
2022/03/30 12:34:20;;;;;;;69.20;61.08;;;;;;;;;;5008538;28;20034;-53
2022/03/30 12:36:49;;;;;;;59.72;53.35;;;;;;;;;;5008482;28;20021;-54
2022/03/30 12:39:15;;;;;;;73.03;60.72;;;;;;;;;;5008834;28;20022;-52
2022/03/30 12:41:40;;;;;;;99.53;76.95;;;;;;;;;;5010191;28;20060;-53
2022/03/30 12:44:05;;;;;;;155.23;101.72;;;;;;;;;;5005571;28;20046;-51
2022/03/30 12:46:34;;;;;;;105.53;79.07;;;;;;;;;;5008372;28;20045;-52
2022/03/30 12:49:08;;;;;;;84.70;65.38;;;;;;;;;;5007270;28;20030;-51
2022/03/30 12:51:34;;;;;;;10.50;5.50;;;;;;;;;;4985656;28;20021;-53
2022/03/30 12:54:00;;;;;;;48.53;43.72;;;;;;;;;;5000038;28;20033;-51
2022/03/30 12:56:25;;;;;;;62.35;55.63;;;;;;;;;;4969143;28;20150;-52
2022/03/30 12:58:54;;;;;;;105.78;80.30;;;;;;;;;;5002738;28;20026;-51
2022/03/30 13:01:34;;;;;;;176.65;110.20;;;;;;;;;;4999792;28;20256;-52
2022/03/30 13:04:00;;;;;;;14.10;11.10;;;;;;;;;;5001847;28;20026;-52
2022/03/30 13:06:25;;;;;;;90.82;72.78;;;;;;;;;;4983720;28;20032;-51
2022/03/30 13:09:07;;;;;;;105.75;78.28;;;;;;;;;;5001367;28;20768;-52
2022/03/30 13:11:32;;;;;;;149.90;99.65;;;;;;;;;;5001526;28;20025;-52
2022/03/30 13:13:58;;;;;;;148.32;98.40;;;;;;;;;;4984421;28;20034;-54
2022/03/30 13:16:26;;;;;;;68.93;56.92;;;;;;;;;;5001204;28;20026;-52
2022/03/30 13:19:08;;;;;;;103.95;77.85;;;;;;;;;;5000540;28;20036;-53
2022/03/30 13:21:43;;;;;;;20.40;18.52;;;;;;;;;;5002244;28;20166;-52
2022/03/30 13:24:08;;;;;;;89.38;72.60;;;;;;;;;;5000385;28;20022;-52
2022/03/30 13:26:37;;;;;;;138.43;95.07;;;;;;;;;;5001503;28;20413;-53
2022/03/30 13:29:03;;;;;;;193.43;116.57;;;;;;;;;;5002485;28;20029;-52
2022/03/30 13:31:28;;;;;;;130.27;89.45;;;;;;;;;;5001838;28;20079;-51
2022/03/30 13:33:54;;;;;;;145.55;97.97;;;;;;;;;;5002614;28;20053;-53
2022/03/30 13:36:19;;;;;;;10.05;5.53;;;;;;;;;;5002997;28;20402;-52
2022/03/30 13:38:48;;;;;;;9.52;5.43;;;;;;;;;;5003492;28;20478;-52
2022/03/30 13:41:15;;;;;;;12.48;8.32;;;;;;;;;;4992453;28;20143;-51
2022/03/30 13:43:40;;;;;;;53.83;48.25;;;;;;;;;;5011975;28;20552;-51
2022/03/30 13:46:06;;;;;;;25.45;23.02;;;;;;;;;;5002473;28;20060;-51
2022/03/30 13:48:31;;;;;;;22.15;20.02;;;;;;;;;;5001730;28;20104;-53
2022/03/30 13:50:59;;;;;;;14.80;12.50;;;;;;;;;;5003238;28;20032;-52
2022/03/30 13:53:25;;;;;;;23.30;20.88;;;;;;;;;;5002199;28;20088;-52
2022/03/30 13:55:50;;;;;;;16.10;14.50;;;;;;;;;;5002282;28;20053;-50
2022/03/30 13:58:15;;;;;;;20.67;18.73;;;;;;;;;;4999067;28;21214;-51
2022/03/30 14:00:41;;;;;;;10.13;5.43;;;;;;;;;;5003359;28;20413;-51
2022/03/30 14:03:07;;;;;;;8.88;5.40;;;;;;;;;;5001558;28;20291;-53
2022/03/30 14:05:32;;;;;;;8.48;4.82;;;;;;;;;;5002138;28;20121;-51
2022/03/30 14:07:58;;;;;;;10.10;5.47;;;;;;;;;;5002670;28;20053;-52
2022/03/30 14:10:24;;;;;;;15.23;12.77;;;;;;;;;;5002400;28;20022;-52
2022/03/30 14:12:49;;;;;;;24.52;22.33;;;;;;;;;;5002120;28;20029;-53
2022/03/30 14:15:14;;;;;;;29.65;26.85;;;;;;;;;;5002995;28;20036;-52
2022/03/30 14:17:40;;;;;;;40.67;37.03;;;;;;;;;;5003109;28;20036;-52
2022/03/30 14:20:05;;;;;;;13.53;9.70;;;;;;;;;;5002169;28;20064;-50
2022/03/30 14:22:31;;;;;;;9.00;5.10;;;;;;;;;;4986927;28;20030;-53
2022/03/30 14:24:56;;;;;;;22.63;20.53;;;;;;;;;;5001712;28;20022;-52
2022/03/30 14:27:21;;;;;;;12.70;9.70;;;;;;;;;;5001788;28;20265;-51
2022/03/30 14:29:47;;;;;;;20.67;18.73;;;;;;;;;;5002577;28;20316;-51
2022/03/30 14:32:12;;;;;;;30.13;27.23;;;;;;;;;;5000739;28;20026;-53